Friedman Memorial Airport Hailey US
ICAO: KSUN
IATA: SUN
Category: Medium
Scheduled Services: Yes

Elevation: 5318 ft
TransAlt. 18000 ft.

Airport Communications:
ATIS:128.225
AWOS:128.225
SALT LAKE CITY CNTR:118.05
CTAF:125.6
GND:121.7
BOISE RDO:122.4
HAILEY TWR:125.6
UNICOM:122.95

KSUN Zoom In..

If you have problems with the map follow the link
https://www.worldairports.se/pages/airport.php?
ICAO=KSUN

Runways:

(A) RW 13 length 7550 ft width 100 ft
---- / hdg 129

(B) RW 31 length 7550 ft width 100 ft
---- / hdg 309

Location; KSUN
Day. 23 / Time. 17.47 Zulu
* Altimeter: 30.10
* Temperature: 09° c. 48.2°f.
* Wind from: 300° Speed 03 kn.
Dewpoint: 08° c.
Visibility: 3 Statute Miles.
Clouds: Scattered 500 ft.
Clouds: Broken 2000 ft.
Clouds: Overcast 3000 ft.
Conditions: Light Rain.

KSUN 231747Z 30003KT 3SM -RA SCT005 BKN020 OVC030 09/08 A3010


Wind From 300°
Speed 03 kn.

 
 
jpsmedia.com for Web Design worldairports.se 2018   terms of use